sensor_id;sensor_type;location;lat;lon;timestamp;pressure;altitude;pressure_sealevel;temperature;humidity
65880;BME280;52661;51.364;6.054;2023-05-25T00:01:15;102111.44;;;11.47;100.00
65880;BME280;52661;51.364;6.054;2023-05-25T00:03:41;102116.81;;;11.43;100.00
65880;BME280;52661;51.364;6.054;2023-05-25T00:06:07;102109.97;;;11.49;100.00
65880;BME280;52661;51.364;6.054;2023-05-25T00:08:34;102112.09;;;11.40;100.00
65880;BME280;52661;51.364;6.054;2023-05-25T00:10:59;102111.97;;;11.33;100.00
65880;BME280;52661;51.364;6.054;2023-05-25T00:13:25;102123.22;;;11.31;100.00
65880;BME280;52661;51.364;6.054;2023-05-25T00:15:50;102114.06;;;11.20;100.00
65880;BME280;52661;51.364;6.054;2023-05-25T00:18:15;102099.75;;;11.04;100.00
65880;BME280;52661;51.364;6.054;2023-05-25T00:20:41;102103.47;;;10.96;100.00
65880;BME280;52661;51.364;6.054;2023-05-25T00:23:08;102096.03;;;10.93;100.00
65880;BME280;52661;51.364;6.054;2023-05-25T00:25:33;102108.81;;;10.93;100.00
65880;BME280;52661;51.364;6.054;2023-05-25T00:27:59;102098.03;;;10.96;100.00
65880;BME280;52661;51.364;6.054;2023-05-25T00:30:28;102109.19;;;10.91;100.00
65880;BME280;52661;51.364;6.054;2023-05-25T00:32:53;102099.59;;;10.78;100.00
65880;BME280;52661;51.364;6.054;2023-05-25T00:35:19;102100.38;;;10.78;100.00
65880;BME280;52661;51.364;6.054;2023-05-25T00:37:45;102108.97;;;10.80;100.00
65880;BME280;52661;51.364;6.054;2023-05-25T00:40:13;102111.63;;;10.77;100.00
65880;BME280;52661;51.364;6.054;2023-05-25T00:42:40;102107.59;;;10.71;100.00
65880;BME280;52661;51.364;6.054;2023-05-25T00:45:06;102109.16;;;10.72;100.00
65880;BME280;52661;51.364;6.054;2023-05-25T00:47:32;102108.22;;;10.64;100.00
65880;BME280;52661;51.364;6.054;2023-05-25T00:49:57;102115.72;;;10.71;100.00
65880;BME280;52661;51.364;6.054;2023-05-25T00:52:23;102105.31;;;10.73;100.00
65880;BME280;52661;51.364;6.054;2023-05-25T00:54:53;102113.31;;;10.66;100.00
65880;BME280;52661;51.364;6.054;2023-05-25T00:57:21;102113.72;;;10.68;100.00
65880;BME280;52661;51.364;6.054;2023-05-25T00:59:49;102107.56;;;10.52;100.00
65880;BME280;52661;51.364;6.054;2023-05-25T01:02:17;102111.16;;;10.56;100.00
65880;BME280;52661;51.364;6.054;2023-05-25T01:04:51;102119.94;;;10.68;100.00
65880;BME280;52661;51.364;6.054;2023-05-25T01:07:22;102117.94;;;10.65;100.00
65880;BME280;52661;51.364;6.054;2023-05-25T01:09:55;102117.06;;;10.61;100.00
65880;BME280;52661;51.364;6.054;2023-05-25T01:12:23;102116.75;;;10.63;100.00
65880;BME280;52661;51.364;6.054;2023-05-25T01:14:51;102122.97;;;10.48;100.00
65880;BME280;52661;51.364;6.054;2023-05-25T01:17:18;102122.28;;;10.51;100.00
65880;BME280;52661;51.364;6.054;2023-05-25T01:19:44;102122.16;;;10.63;100.00
65880;BME280;52661;51.364;6.054;2023-05-25T01:22:24;102119.78;;;10.61;100.00
65880;BME280;52661;51.364;6.054;2023-05-25T01:24:55;102123.16;;;10.55;100.00
65880;BME280;52661;51.364;6.054;2023-05-25T01:29:58;102122.66;;;10.68;100.00
65880;BME280;52661;51.364;6.054;2023-05-25T01:32:25;102119.97;;;10.53;100.00
65880;BME280;52661;51.364;6.054;2023-05-25T01:34:51;102119.28;;;10.56;100.00
65880;BME280;52661;51.364;6.054;2023-05-25T01:37:19;102116.91;;;10.70;100.00
65880;BME280;52661;51.364;6.054;2023-05-25T01:39:47;102120.06;;;10.56;100.00
65880;BME280;52661;51.364;6.054;2023-05-25T01:42:12;102110.84;;;10.61;100.00
65880;BME280;52661;51.364;6.054;2023-05-25T01:44:39;102116.56;;;10.56;100.00
65880;BME280;52661;51.364;6.054;2023-05-25T01:47:16;102128.03;;;10.49;100.00
65880;BME280;52661;51.364;6.054;2023-05-25T01:52:26;102132.63;;;10.29;100.00
65880;BME280;52661;51.364;6.054;2023-05-25T01:54:59;102131.41;;;10.27;100.00
65880;BME280;52661;51.364;6.054;2023-05-25T01:57:28;102128.78;;;10.15;100.00
65880;BME280;52661;51.364;6.054;2023-05-25T01:59:54;102135.69;;;10.12;100.00
65880;BME280;52661;51.364;6.054;2023-05-25T02:02:24;102132.00;;;10.20;100.00
65880;BME280;52661;51.364;6.054;2023-05-25T02:04:52;102145.75;;;10.27;100.00
65880;BME280;52661;51.364;6.054;2023-05-25T02:07:18;102146.38;;;10.21;100.00
65880;BME280;52661;51.364;6.054;2023-05-25T02:09:43;102136.84;;;10.27;100.00
65880;BME280;52661;51.364;6.054;2023-05-25T02:12:08;102134.56;;;10.29;100.00
65880;BME280;52661;51.364;6.054;2023-05-25T02:14:34;102137.03;;;10.34;100.00
65880;BME280;52661;51.364;6.054;2023-05-25T02:16:59;102136.16;;;10.30;100.00
65880;BME280;52661;51.364;6.054;2023-05-25T02:19:26;102137.03;;;10.34;100.00
65880;BME280;52661;51.364;6.054;2023-05-25T02:21:51;102131.94;;;10.17;100.00
65880;BME280;52661;51.364;6.054;2023-05-25T02:24:17;102134.66;;;10.17;100.00
65880;BME280;52661;51.364;6.054;2023-05-25T02:26:42;102134.25;;;10.03;100.00
65880;BME280;52661;51.364;6.054;2023-05-25T02:29:08;102138.06;;;9.98;100.00
65880;BME280;52661;51.364;6.054;2023-05-25T02:31:33;102133.56;;;9.90;100.00
65880;BME280;52661;51.364;6.054;2023-05-25T02:33:58;102126.84;;;10.00;100.00
65880;BME280;52661;51.364;6.054;2023-05-25T02:36:24;102126.66;;;9.93;100.00
65880;BME280;52661;51.364;6.054;2023-05-25T02:38:50;102132.88;;;9.93;100.00
65880;BME280;52661;51.364;6.054;2023-05-25T02:41:17;102132.50;;;9.79;100.00
65880;BME280;52661;51.364;6.054;2023-05-25T02:43:43;102131.38;;;9.80;100.00
65880;BME280;52661;51.364;6.054;2023-05-25T02:46:09;102143.88;;;9.69;100.00
65880;BME280;52661;51.364;6.054;2023-05-25T02:48:35;102134.50;;;9.66;100.00
65880;BME280;52661;51.364;6.054;2023-05-25T02:51:00;102125.56;;;9.66;100.00
65880;BME280;52661;51.364;6.054;2023-05-25T02:53:27;102126.44;;;9.54;100.00
65880;BME280;52661;51.364;6.054;2023-05-25T02:55:53;102132.84;;;9.62;100.00
65880;BME280;52661;51.364;6.054;2023-05-25T02:58:18;102132.56;;;9.51;100.00
65880;BME280;52661;51.364;6.054;2023-05-25T03:00:43;102134.13;;;9.52;100.00
65880;BME280;52661;51.364;6.054;2023-05-25T03:03:10;102137.38;;;9.58;100.00
65880;BME280;52661;51.364;6.054;2023-05-25T03:05:36;102140.53;;;9.60;100.00
65880;BME280;52661;51.364;6.054;2023-05-25T03:08:02;102134.59;;;9.70;100.00
65880;BME280;52661;51.364;6.054;2023-05-25T03:10:28;102132.84;;;9.62;100.00
65880;BME280;52661;51.364;6.054;2023-05-25T03:12:53;102139.81;;;9.47;100.00
65880;BME280;52661;51.364;6.054;2023-05-25T03:15:18;102148.03;;;9.66;100.00
65880;BME280;52661;51.364;6.054;2023-05-25T03:17:43;102153.94;;;9.68;100.00
65880;BME280;52661;51.364;6.054;2023-05-25T03:20:09;102158.03;;;9.78;100.00
65880;BME280;52661;51.364;6.054;2023-05-25T03:22:35;102162.84;;;9.69;100.00
65880;BME280;52661;51.364;6.054;2023-05-25T03:25:02;102167.47;;;9.68;100.00
65880;BME280;52661;51.364;6.054;2023-05-25T03:27:27;102165.56;;;9.69;100.00
65880;BME280;52661;51.364;6.054;2023-05-25T03:29:53;102163.59;;;9.54;100.00
65880;BME280;52661;51.364;6.054;2023-05-25T03:32:18;102168.41;;;9.60;100.00
65880;BME280;52661;51.364;6.054;2023-05-25T03:34:43;102172.13;;;9.68;100.00
65880;BME280;52661;51.364;6.054;2023-05-25T03:37:09;102173.50;;;9.62;100.00
65880;BME280;52661;51.364;6.054;2023-05-25T03:39:35;102170.94;;;9.53;100.00
65880;BME280;52661;51.364;6.054;2023-05-25T03:42:00;102174.28;;;9.62;100.00
65880;BME280;52661;51.364;6.054;2023-05-25T03:44:26;102175.63;;;9.68;100.00
65880;BME280;52661;51.364;6.054;2023-05-25T03:46:52;102185.06;;;9.74;100.00
65880;BME280;52661;51.364;6.054;2023-05-25T03:49:17;102182.72;;;9.73;100.00
65880;BME280;52661;51.364;6.054;2023-05-25T03:51:43;102177.34;;;9.61;100.00
65880;BME280;52661;51.364;6.054;2023-05-25T03:54:08;102180.56;;;9.66;100.00
65880;BME280;52661;51.364;6.054;2023-05-25T03:56:34;102180.84;;;9.61;100.00
65880;BME280;52661;51.364;6.054;2023-05-25T03:58:59;102180.66;;;9.54;100.00
65880;BME280;52661;51.364;6.054;2023-05-25T04:01:25;102187.53;;;9.52;100.00
65880;BME280;52661;51.364;6.054;2023-05-25T04:03:51;102190.25;;;9.52;100.00
65880;BME280;52661;51.364;6.054;2023-05-25T04:06:19;102176.06;;;9.43;100.00
65880;BME280;52661;51.364;6.054;2023-05-25T04:08:45;102190.34;;;9.55;100.00
65880;BME280;52661;51.364;6.054;2023-05-25T04:11:10;102185.09;;;9.62;100.00
65880;BME280;52661;51.364;6.054;2023-05-25T04:13:36;102184.78;;;9.64;100.00
65880;BME280;52661;51.364;6.054;2023-05-25T04:16:05;102186.00;;;9.66;100.00
65880;BME280;52661;51.364;6.054;2023-05-25T04:18:31;102195.28;;;9.65;100.00
65880;BME280;52661;51.364;6.054;2023-05-25T04:20:56;102196.41;;;9.64;100.00
65880;BME280;52661;51.364;6.054;2023-05-25T04:23:24;102205.03;;;9.54;100.00
65880;BME280;52661;51.364;6.054;2023-05-25T04:25:50;102206.97;;;9.54;100.00
65880;BME280;52661;51.364;6.054;2023-05-25T04:28:16;102207.59;;;9.63;100.00
65880;BME280;52661;51.364;6.054;2023-05-25T04:30:41;102201.84;;;9.64;100.00
65880;BME280;52661;51.364;6.054;2023-05-25T04:33:08;102208.84;;;9.65;100.00
65880;BME280;52661;51.364;6.054;2023-05-25T04:35:35;102207.59;;;9.63;100.00
65880;BME280;52661;51.364;6.054;2023-05-25T04:38:01;102216.47;;;9.75;100.00
65880;BME280;52661;51.364;6.054;2023-05-25T04:40:27;102222.41;;;9.65;100.00
65880;BME280;52661;51.364;6.054;2023-05-25T04:42:53;102218.91;;;9.65;100.00
65880;BME280;52661;51.364;6.054;2023-05-25T04:45:20;102214.69;;;9.67;100.00
65880;BME280;52661;51.364;6.054;2023-05-25T04:47:45;102216.22;;;9.80;100.00
65880;BME280;52661;51.364;6.054;2023-05-25T04:50:11;102220.38;;;9.90;100.00
65880;BME280;52661;51.364;6.054;2023-05-25T04:52:37;102230.31;;;9.86;100.00
65880;BME280;52661;51.364;6.054;2023-05-25T04:55:02;102218.53;;;9.94;100.00
65880;BME280;52661;51.364;6.054;2023-05-25T04:57:28;102224.28;;;9.93;100.00
65880;BME280;52661;51.364;6.054;2023-05-25T04:59:54;102228.41;;;10.02;100.00
65880;BME280;52661;51.364;6.054;2023-05-25T05:02:20;102220.69;;;9.88;100.00
65880;BME280;52661;51.364;6.054;2023-05-25T05:04:45;102223.41;;;9.88;100.00
65880;BME280;52661;51.364;6.054;2023-05-25T05:07:11;102225.59;;;9.99;100.00
65880;BME280;52661;51.364;6.054;2023-05-25T05:09:36;102228.31;;;9.99;100.00
65880;BME280;52661;51.364;6.054;2023-05-25T05:12:02;102234.81;;;10.10;100.00
65880;BME280;52661;51.364;6.054;2023-05-25T05:14:28;102236.63;;;10.18;100.00
65880;BME280;52661;51.364;6.054;2023-05-25T05:16:53;102235.19;;;10.08;100.00
65880;BME280;52661;51.364;6.054;2023-05-25T05:19:19;102238.13;;;10.15;100.00
65880;BME280;52661;51.364;6.054;2023-05-25T05:21:44;102242.50;;;10.20;100.00
65880;BME280;52661;51.364;6.054;2023-05-25T05:24:10;102243.03;;;10.25;100.00
65880;BME280;52661;51.364;6.054;2023-05-25T05:26:35;102243.91;;;10.29;100.00
65880;BME280;52661;51.364;6.054;2023-05-25T05:29:02;102249.50;;;10.36;100.00
65880;BME280;52661;51.364;6.054;2023-05-25T05:31:28;102250.81;;;10.43;100.00
65880;BME280;52661;51.364;6.054;2023-05-25T05:33:54;102252.91;;;10.49;100.00
65880;BME280;52661;51.364;6.054;2023-05-25T05:36:19;102253.88;;;10.57;100.00
65880;BME280;52661;51.364;6.054;2023-05-25T05:38:44;102258.97;;;10.58;100.00
65880;BME280;52661;51.364;6.054;2023-05-25T05:41:11;102267.81;;;10.71;100.00
65880;BME280;52661;51.364;6.054;2023-05-25T05:43:40;102262.13;;;10.76;100.00
65880;BME280;52661;51.364;6.054;2023-05-25T05:46:08;102264.50;;;10.77;100.00
65880;BME280;52661;51.364;6.054;2023-05-25T05:48:35;102270.00;;;10.81;100.00
65880;BME280;52661;51.364;6.054;2023-05-25T05:51:01;102268.94;;;10.85;100.00
65880;BME280;52661;51.364;6.054;2023-05-25T05:53:26;102283.03;;;10.91;100.00
65880;BME280;52661;51.364;6.054;2023-05-25T05:55:52;102269.63;;;10.98;100.00
65880;BME280;52661;51.364;6.054;2023-05-25T05:58:23;102278.50;;;10.95;100.00
65880;BME280;52661;51.364;6.054;2023-05-25T06:00:50;102282.09;;;10.99;100.00
65880;BME280;52661;51.364;6.054;2023-05-25T06:03:16;102277.69;;;11.10;100.00
65880;BME280;52661;51.364;6.054;2023-05-25T06:05:41;102280.63;;;11.21;100.00
65880;BME280;52661;51.364;6.054;2023-05-25T06:08:06;102284.91;;;11.22;100.00
65880;BME280;52661;51.364;6.054;2023-05-25T06:10:34;102286.66;;;11.30;100.00
65880;BME280;52661;51.364;6.054;2023-05-25T06:12:59;102295.34;;;11.35;100.00
65880;BME280;52661;51.364;6.054;2023-05-25T06:15:25;102293.78;;;11.54;100.00
65880;BME280;52661;51.364;6.054;2023-05-25T06:17:50;102291.38;;;11.68;100.00
65880;BME280;52661;51.364;6.054;2023-05-25T06:20:15;102293.53;;;11.78;100.00
65880;BME280;52661;51.364;6.054;2023-05-25T06:22:40;102291.75;;;11.86;100.00
65880;BME280;52661;51.364;6.054;2023-05-25T06:25:06;102289.97;;;11.93;100.00
65880;BME280;52661;51.364;6.054;2023-05-25T06:27:34;102298.19;;;11.97;100.00
65880;BME280;52661;51.364;6.054;2023-05-25T06:30:00;102300.59;;;12.02;100.00
65880;BME280;52661;51.364;6.054;2023-05-25T06:32:25;102300.31;;;12.07;100.00
65880;BME280;52661;51.364;6.054;2023-05-25T06:34:50;102304.56;;;12.04;100.00
65880;BME280;52661;51.364;6.054;2023-05-25T06:37:16;102296.03;;;12.06;100.00
65880;BME280;52661;51.364;6.054;2023-05-25T06:39:41;102307.03;;;12.13;100.00
65880;BME280;52661;51.364;6.054;2023-05-25T06:42:08;102311.06;;;12.19;100.00
65880;BME280;52661;51.364;6.054;2023-05-25T06:44:34;102318.84;;;12.20;100.00
65880;BME280;52661;51.364;6.054;2023-05-25T06:46:59;102314.41;;;12.31;100.00
65880;BME280;52661;51.364;6.054;2023-05-25T06:49:25;102318.59;;;12.48;100.00
65880;BME280;52661;51.364;6.054;2023-05-25T06:51:51;102323.81;;;12.57;100.00
65880;BME280;52661;51.364;6.054;2023-05-25T06:54:16;102323.19;;;12.67;100.00
65880;BME280;52661;51.364;6.054;2023-05-25T06:56:44;102329.19;;;12.76;100.00
65880;BME280;52661;51.364;6.054;2023-05-25T06:59:09;102323.47;;;12.84;100.00
65880;BME280;52661;51.364;6.054;2023-05-25T07:01:35;102324.81;;;12.94;100.00
65880;BME280;52661;51.364;6.054;2023-05-25T07:04:00;102322.22;;;13.01;100.00
65880;BME280;52661;51.364;6.054;2023-05-25T07:06:26;102325.00;;;13.05;100.00
65880;BME280;52661;51.364;6.054;2023-05-25T07:08:51;102326.28;;;13.11;100.00
65880;BME280;52661;51.364;6.054;2023-05-25T07:11:17;102318.19;;;12.95;100.00
65880;BME280;52661;51.364;6.054;2023-05-25T07:13:45;102323.41;;;13.04;100.00
65880;BME280;52661;51.364;6.054;2023-05-25T07:16:10;102324.19;;;13.04;100.00
65880;BME280;52661;51.364;6.054;2023-05-25T07:18:38;102324.81;;;13.17;100.00
65880;BME280;52661;51.364;6.054;2023-05-25T07:21:05;102328.16;;;13.33;100.00
65880;BME280;52661;51.364;6.054;2023-05-25T07:23:31;102329.06;;;13.41;100.00
65880;BME280;52661;51.364;6.054;2023-05-25T07:25:56;102330.41;;;13.54;100.00
65880;BME280;52661;51.364;6.054;2023-05-25T07:28:21;102339.16;;;13.66;100.00
65880;BME280;52661;51.364;6.054;2023-05-25T07:30:47;102333.31;;;13.68;100.00
65880;BME280;52661;51.364;6.054;2023-05-25T07:33:12;102344.84;;;13.84;100.00
65880;BME280;52661;51.364;6.054;2023-05-25T07:35:37;102346.03;;;13.87;100.00
65880;BME280;52661;51.364;6.054;2023-05-25T07:38:03;102338.69;;;13.91;100.00
65880;BME280;52661;51.364;6.054;2023-05-25T07:40:28;102343.03;;;13.65;100.00
65880;BME280;52661;51.364;6.054;2023-05-25T07:42:54;102345.78;;;13.65;100.00
65880;BME280;52661;51.364;6.054;2023-05-25T07:45:20;102346.16;;;13.67;100.00
65880;BME280;52661;51.364;6.054;2023-05-25T07:47:46;102348.06;;;13.93;100.00
65880;BME280;52661;51.364;6.054;2023-05-25T07:50:12;102348.06;;;13.93;100.00
65880;BME280;52661;51.364;6.054;2023-05-25T07:52:38;102347.88;;;13.79;100.00
65880;BME280;52661;51.364;6.054;2023-05-25T07:55:07;102350.25;;;13.51;100.00
65880;BME280;52661;51.364;6.054;2023-05-25T07:57:32;102353.06;;;13.58;100.00
65880;BME280;52661;51.364;6.054;2023-05-25T07:59:58;102350.53;;;13.46;100.00
65880;BME280;52661;51.364;6.054;2023-05-25T08:02:24;102356.31;;;13.67;100.00
65880;BME280;52661;51.364;6.054;2023-05-25T08:04:49;102362.09;;;13.62;100.00
65880;BME280;52661;51.364;6.054;2023-05-25T08:07:14;102358.06;;;13.52;100.00
65880;BME280;52661;51.364;6.054;2023-05-25T08:09:40;102363.34;;;13.68;100.00
65880;BME280;52661;51.364;6.054;2023-05-25T08:12:06;102363.13;;;13.80;100.00
65880;BME280;52661;51.364;6.054;2023-05-25T08:14:31;102362.50;;;13.64;100.00
65880;BME280;52661;51.364;6.054;2023-05-25T08:16:56;102357.78;;;13.61;100.00
65880;BME280;52661;51.364;6.054;2023-05-25T08:19:22;102358.06;;;13.82;100.00
65880;BME280;52661;51.364;6.054;2023-05-25T08:21:47;102360.97;;;14.29;100.00
65880;BME280;52661;51.364;6.054;2023-05-25T08:24:12;102362.88;;;14.59;100.00
65880;BME280;52661;51.364;6.054;2023-05-25T08:26:37;102380.25;;;14.81;100.00
65880;BME280;52661;51.364;6.054;2023-05-25T08:29:05;102360.47;;;14.94;100.00
65880;BME280;52661;51.364;6.054;2023-05-25T08:31:31;102365.13;;;14.90;100.00
65880;BME280;52661;51.364;6.054;2023-05-25T08:33:57;102373.06;;;15.06;100.00
65880;BME280;52661;51.364;6.054;2023-05-25T08:36:23;102367.22;;;15.07;100.00
65880;BME280;52661;51.364;6.054;2023-05-25T08:38:48;102374.56;;;15.00;100.00
65880;BME280;52661;51.364;6.054;2023-05-25T08:41:14;102382.63;;;14.82;100.00
65880;BME280;52661;51.364;6.054;2023-05-25T08:43:40;102378.78;;;14.87;100.00
65880;BME280;52661;51.364;6.054;2023-05-25T08:46:06;102374.41;;;15.26;100.00
65880;BME280;52661;51.364;6.054;2023-05-25T08:48:33;102387.34;;;15.33;100.00
65880;BME280;52661;51.364;6.054;2023-05-25T08:51:06;102374.59;;;15.03;100.00
65880;BME280;52661;51.364;6.054;2023-05-25T08:53:35;102383.25;;;15.12;100.00
65880;BME280;52661;51.364;6.054;2023-05-25T08:56:05;102376.78;;;15.35;100.00
65880;BME280;52661;51.364;6.054;2023-05-25T08:58:38;102386.75;;;15.60;100.00
65880;BME280;52661;51.364;6.054;2023-05-25T09:01:08;102387.25;;;15.73;100.00
65880;BME280;52661;51.364;6.054;2023-05-25T09:03:34;102381.25;;;15.53;100.00
65880;BME280;52661;51.364;6.054;2023-05-25T09:06:01;102384.09;;;15.71;100.00
65880;BME280;52661;51.364;6.054;2023-05-25T09:08:26;102380.66;;;15.95;100.00
65880;BME280;52661;51.364;6.054;2023-05-25T09:10:54;102387.41;;;16.08;100.00
65880;BME280;52661;51.364;6.054;2023-05-25T09:13:20;102388.50;;;15.93;100.00
65880;BME280;52661;51.364;6.054;2023-05-25T09:15:46;102390.09;;;16.01;100.00
65880;BME280;52661;51.364;6.054;2023-05-25T09:18:12;102392.47;;;16.06;100.00
65880;BME280;52661;51.364;6.054;2023-05-25T09:20:37;102385.75;;;15.93;100.00
65880;BME280;52661;51.364;6.054;2023-05-25T09:23:03;102380.94;;;15.65;100.00
65880;BME280;52661;51.364;6.054;2023-05-25T09:25:28;102389.88;;;15.55;100.00
65880;BME280;52661;51.364;6.054;2023-05-25T09:27:55;102389.06;;;15.51;100.00
65880;BME280;52661;51.364;6.054;2023-05-25T09:30:24;102383.72;;;15.76;100.00
65880;BME280;52661;51.364;6.054;2023-05-25T09:32:50;102387.91;;;15.56;100.00
65880;BME280;52661;51.364;6.054;2023-05-25T09:35:18;102380.72;;;15.34;100.00
65880;BME280;52661;51.364;6.054;2023-05-25T09:37:43;102392.16;;;15.50;100.00
65880;BME280;52661;51.364;6.054;2023-05-25T09:40:09;102390.09;;;15.36;100.00
65880;BME280;52661;51.364;6.054;2023-05-25T09:42:35;102390.97;;;15.47;100.00
65880;BME280;52661;51.364;6.054;2023-05-25T09:45:01;102389.34;;;15.39;100.00
65880;BME280;52661;51.364;6.054;2023-05-25T09:47:27;102388.56;;;15.42;100.00
65880;BME280;52661;51.364;6.054;2023-05-25T09:49:54;102392.91;;;15.47;100.00
65880;BME280;52661;51.364;6.054;2023-05-25T09:52:20;102384.03;;;15.64;100.00
65880;BME280;52661;51.364;6.054;2023-05-25T09:54:50;102395.00;;;15.67;100.00
65880;BME280;52661;51.364;6.054;2023-05-25T09:57:18;102395.34;;;15.55;100.00
65880;BME280;52661;51.364;6.054;2023-05-25T09:59:44;102398.72;;;15.42;100.00
65880;BME280;52661;51.364;6.054;2023-05-25T10:02:10;102394.19;;;15.60;100.00
65880;BME280;52661;51.364;6.054;2023-05-25T10:04:36;102402.88;;;15.72;100.00
65880;BME280;52661;51.364;6.054;2023-05-25T10:07:03;102396.22;;;15.73;100.00
65880;BME280;52661;51.364;6.054;2023-05-25T10:09:29;102400.88;;;15.62;100.00
65880;BME280;52661;51.364;6.054;2023-05-25T10:11:56;102404.31;;;15.56;100.00
65880;BME280;52661;51.364;6.054;2023-05-25T10:14:27;102405.00;;;15.46;100.00
65880;BME280;52661;51.364;6.054;2023-05-25T10:16:54;102405.00;;;15.46;100.00
65880;BME280;52661;51.364;6.054;2023-05-25T10:19:30;102410.47;;;15.46;100.00
65880;BME280;52661;51.364;6.054;2023-05-25T10:22:23;102407.44;;;15.51;100.00
65880;BME280;52661;51.364;6.054;2023-05-25T10:24:56;102406.41;;;15.73;100.00
65880;BME280;52661;51.364;6.054;2023-05-25T10:27:23;102404.91;;;15.90;100.00
65880;BME280;52661;51.364;6.054;2023-05-25T10:29:51;102408.09;;;15.99;100.00
65880;BME280;52661;51.364;6.054;2023-05-25T10:32:17;102414.66;;;15.84;100.00
65880;BME280;52661;51.364;6.054;2023-05-25T10:34:43;102412.19;;;15.61;100.00
65880;BME280;52661;51.364;6.054;2023-05-25T10:37:09;102417.66;;;15.61;100.00
65880;BME280;52661;51.364;6.054;2023-05-25T10:39:35;102413.28;;;15.53;100.00
65880;BME280;52661;51.364;6.054;2023-05-25T10:42:01;102414.91;;;15.61;100.00
65880;BME280;52661;51.364;6.054;2023-05-25T10:44:29;102411.81;;;15.62;100.00
65880;BME280;52661;51.364;6.054;2023-05-25T10:46:55;102413.34;;;15.60;100.00
65880;BME280;52661;51.364;6.054;2023-05-25T10:49:30;102406.59;;;15.47;100.00
65880;BME280;52661;51.364;6.054;2023-05-25T10:52:00;102414.09;;;15.57;100.00
65880;BME280;52661;51.364;6.054;2023-05-25T10:54:29;102415.22;;;15.49;100.00
65880;BME280;52661;51.364;6.054;2023-05-25T10:57:08;102415.91;;;15.39;100.00
65880;BME280;52661;51.364;6.054;2023-05-25T10:59:34;102410.91;;;15.48;100.00
65880;BME280;52661;51.364;6.054;2023-05-25T11:02:04;102419.63;;;15.64;100.00
65880;BME280;52661;51.364;6.054;2023-05-25T11:04:30;102418.91;;;15.74;100.00
65880;BME280;52661;51.364;6.054;2023-05-25T11:09:27;102394.41;;;15.99;98.30
65880;BME280;52661;51.364;6.054;2023-05-25T11:14:27;102405.81;;;16.18;98.10
65880;BME280;52661;51.364;6.054;2023-05-25T11:17:10;102412.69;;;15.77;98.57
65880;BME280;52661;51.364;6.054;2023-05-25T11:22:22;102401.56;;;15.52;100.00
65880;BME280;52661;51.364;6.054;2023-05-25T11:24:57;102398.69;;;15.35;100.00
65880;BME280;52661;51.364;6.054;2023-05-25T11:27:31;102404.50;;;15.26;100.00
65880;BME280;52661;51.364;6.054;2023-05-25T11:29:58;102406.44;;;15.25;100.00
65880;BME280;52661;51.364;6.054;2023-05-25T11:32:27;102405.00;;;15.46;100.00
65880;BME280;52661;51.364;6.054;2023-05-25T11:34:54;102399.16;;;15.44;100.00
65880;BME280;52661;51.364;6.054;2023-05-25T11:37:22;102402.38;;;15.56;100.00
65880;BME280;52661;51.364;6.054;2023-05-25T11:39:53;102398.81;;;15.49;100.00
65880;BME280;52661;51.364;6.054;2023-05-25T11:42:20;102395.31;;;15.52;100.00
65880;BME280;52661;51.364;6.054;2023-05-25T11:44:46;102399.34;;;15.72;100.00
65880;BME280;52661;51.364;6.054;2023-05-25T11:47:12;102390.06;;;15.91;100.00
65880;BME280;52661;51.364;6.054;2023-05-25T11:49:47;102393.16;;;15.86;99.87
65880;BME280;52661;51.364;6.054;2023-05-25T11:52:15;102390.44;;;15.93;99.71
65880;BME280;52661;51.364;6.054;2023-05-25T11:54:41;102384.59;;;15.91;100.00
65880;BME280;52661;51.364;6.054;2023-05-25T11:59:56;102380.72;;;15.99;100.00
65880;BME280;52661;51.364;6.054;2023-05-25T12:02:22;102383.41;;;15.95;100.00
65880;BME280;52661;51.364;6.054;2023-05-25T12:07:21;102383.03;;;15.97;100.00
65880;BME280;52661;51.364;6.054;2023-05-25T12:09:46;102385.03;;;16.03;100.00
65880;BME280;52661;51.364;6.054;2023-05-25T12:12:12;102392.09;;;16.11;99.36
65880;BME280;52661;51.364;6.054;2023-05-25T12:14:47;102391.34;;;16.21;97.31
65880;BME280;52661;51.364;6.054;2023-05-25T12:17:13;102380.78;;;16.13;96.74
65880;BME280;52661;51.364;6.054;2023-05-25T12:19:38;102378.03;;;16.16;96.43
65880;BME280;52661;51.364;6.054;2023-05-25T12:22:04;102376.47;;;16.19;98.61
65880;BME280;52661;51.364;6.054;2023-05-25T12:24:29;102373.38;;;16.24;100.00
65880;BME280;52661;51.364;6.054;2023-05-25T12:26:55;102369.44;;;16.21;99.09
65880;BME280;52661;51.364;6.054;2023-05-25T12:29:27;102365.03;;;15.96;98.56
65880;BME280;52661;51.364;6.054;2023-05-25T12:31:52;102369.41;;;16.14;99.58
65880;BME280;52661;51.364;6.054;2023-05-25T12:34:26;102372.94;;;16.11;96.34
65880;BME280;52661;51.364;6.054;2023-05-25T12:36:54;102367.50;;;16.33;98.89
65880;BME280;52661;51.364;6.054;2023-05-25T12:41:56;102362.91;;;17.04;93.08
65880;BME280;52661;51.364;6.054;2023-05-25T12:44:26;102355.88;;;17.20;99.63
65880;BME280;52661;51.364;6.054;2023-05-25T12:46:54;102367.22;;;17.22;95.96
65880;BME280;52661;51.364;6.054;2023-05-25T12:51:49;102358.59;;;17.31;91.92
65880;BME280;52661;51.364;6.054;2023-05-25T12:54:15;102355.88;;;17.17;92.12
65880;BME280;52661;51.364;6.054;2023-05-25T12:56:57;102358.94;;;17.54;88.35
65880;BME280;52661;51.364;6.054;2023-05-25T12:59:23;102351.25;;;18.22;96.35
65880;BME280;52661;51.364;6.054;2023-05-25T13:01:48;102359.69;;;18.49;90.21
65880;BME280;52661;51.364;6.054;2023-05-25T13:04:13;102360.44;;;18.60;85.86